sensor_id;sensor_type;location;lat;lon;timestamp;P1;durP1;ratioP1;P2;durP2;ratioP2
53263;SDS011;39153;52.680;6.172;2023-07-08T00:00:44;7.78;;;3.20;;
53263;SDS011;39153;52.680;6.172;2023-07-08T00:03:13;6.63;;;3.50;;
53263;SDS011;39153;52.680;6.172;2023-07-08T00:05:39;7.30;;;3.67;;
53263;SDS011;39153;52.680;6.172;2023-07-08T00:08:08;7.43;;;3.30;;
53263;SDS011;39153;52.680;6.172;2023-07-08T00:10:45;6.95;;;3.75;;
53263;SDS011;39153;52.680;6.172;2023-07-08T00:13:11;5.20;;;3.30;;
53263;SDS011;39153;52.680;6.172;2023-07-08T00:15:37;6.97;;;3.67;;
53263;SDS011;39153;52.680;6.172;2023-07-08T00:18:14;7.20;;;3.28;;
53263;SDS011;39153;52.680;6.172;2023-07-08T00:20:45;9.30;;;3.58;;
53263;SDS011;39153;52.680;6.172;2023-07-08T00:23:12;7.05;;;3.67;;
53263;SDS011;39153;52.680;6.172;2023-07-08T00:25:38;4.97;;;3.33;;
53263;SDS011;39153;52.680;6.172;2023-07-08T00:28:15;8.07;;;4.07;;
53263;SDS011;39153;52.680;6.172;2023-07-08T00:30:42;5.82;;;3.70;;
53263;SDS011;39153;52.680;6.172;2023-07-08T00:33:08;7.07;;;3.83;;
53263;SDS011;39153;52.680;6.172;2023-07-08T00:35:35;6.80;;;3.40;;
53263;SDS011;39153;52.680;6.172;2023-07-08T00:38:09;5.57;;;3.53;;
53263;SDS011;39153;52.680;6.172;2023-07-08T00:40:49;6.80;;;3.55;;
53263;SDS011;39153;52.680;6.172;2023-07-08T00:43:17;7.75;;;3.67;;
53263;SDS011;39153;52.680;6.172;2023-07-08T00:45:51;6.97;;;3.88;;
53263;SDS011;39153;52.680;6.172;2023-07-08T00:48:28;6.32;;;3.50;;
53263;SDS011;39153;52.680;6.172;2023-07-08T00:50:56;7.20;;;3.97;;
53263;SDS011;39153;52.680;6.172;2023-07-08T00:55:52;8.35;;;3.58;;
53263;SDS011;39153;52.680;6.172;2023-07-08T00:58:31;7.20;;;3.63;;
53263;SDS011;39153;52.680;6.172;2023-07-08T01:00:59;6.03;;;3.47;;
53263;SDS011;39153;52.680;6.172;2023-07-08T01:03:29;9.40;;;4.35;;
53263;SDS011;39153;52.680;6.172;2023-07-08T01:05:56;7.30;;;3.88;;
53263;SDS011;39153;52.680;6.172;2023-07-08T01:08:25;8.65;;;3.75;;
53263;SDS011;39153;52.680;6.172;2023-07-08T01:10:54;6.55;;;3.45;;
53263;SDS011;39153;52.680;6.172;2023-07-08T01:13:25;6.50;;;3.83;;
53263;SDS011;39153;52.680;6.172;2023-07-08T01:15:51;6.97;;;4.00;;
53263;SDS011;39153;52.680;6.172;2023-07-08T01:18:18;9.63;;;4.25;;
53263;SDS011;39153;52.680;6.172;2023-07-08T01:20:46;7.30;;;3.78;;
53263;SDS011;39153;52.680;6.172;2023-07-08T01:23:12;7.00;;;3.88;;
53263;SDS011;39153;52.680;6.172;2023-07-08T01:25:39;5.63;;;3.65;;
53263;SDS011;39153;52.680;6.172;2023-07-08T01:28:07;7.57;;;4.13;;
53263;SDS011;39153;52.680;6.172;2023-07-08T01:30:33;8.90;;;3.97;;
53263;SDS011;39153;52.680;6.172;2023-07-08T01:33:01;8.20;;;4.10;;
53263;SDS011;39153;52.680;6.172;2023-07-08T01:35:30;7.18;;;3.42;;
53263;SDS011;39153;52.680;6.172;2023-07-08T01:37:57;7.68;;;3.92;;
53263;SDS011;39153;52.680;6.172;2023-07-08T01:40:29;9.60;;;4.03;;
53263;SDS011;39153;52.680;6.172;2023-07-08T01:42:56;8.95;;;4.10;;
53263;SDS011;39153;52.680;6.172;2023-07-08T01:45:24;6.60;;;3.88;;
53263;SDS011;39153;52.680;6.172;2023-07-08T01:47:56;6.53;;;4.10;;
53263;SDS011;39153;52.680;6.172;2023-07-08T01:52:53;8.23;;;3.95;;
53263;SDS011;39153;52.680;6.172;2023-07-08T01:55:24;9.15;;;4.25;;
53263;SDS011;39153;52.680;6.172;2023-07-08T01:57:53;6.90;;;4.10;;
53263;SDS011;39153;52.680;6.172;2023-07-08T02:00:20;7.32;;;4.47;;
53263;SDS011;39153;52.680;6.172;2023-07-08T02:02:46;7.28;;;4.10;;
53263;SDS011;39153;52.680;6.172;2023-07-08T02:05:12;7.55;;;4.30;;
53263;SDS011;39153;52.680;6.172;2023-07-08T02:07:38;7.60;;;4.22;;
53263;SDS011;39153;52.680;6.172;2023-07-08T02:10:04;6.60;;;4.28;;
53263;SDS011;39153;52.680;6.172;2023-07-08T02:12:30;9.32;;;5.53;;
53263;SDS011;39153;52.680;6.172;2023-07-08T02:14:56;6.47;;;4.07;;
53263;SDS011;39153;52.680;6.172;2023-07-08T02:17:21;7.97;;;4.40;;
53263;SDS011;39153;52.680;6.172;2023-07-08T02:19:47;10.38;;;4.47;;
53263;SDS011;39153;52.680;6.172;2023-07-08T02:22:12;7.65;;;4.32;;
53263;SDS011;39153;52.680;6.172;2023-07-08T02:24:38;9.02;;;4.30;;
53263;SDS011;39153;52.680;6.172;2023-07-08T02:27:04;9.25;;;4.40;;
53263;SDS011;39153;52.680;6.172;2023-07-08T02:29:29;7.18;;;4.60;;
53263;SDS011;39153;52.680;6.172;2023-07-08T02:31:57;7.30;;;4.30;;
53263;SDS011;39153;52.680;6.172;2023-07-08T02:34:22;7.22;;;4.40;;
53263;SDS011;39153;52.680;6.172;2023-07-08T02:36:48;6.47;;;4.40;;
53263;SDS011;39153;52.680;6.172;2023-07-08T02:39:14;7.53;;;4.53;;
53263;SDS011;39153;52.680;6.172;2023-07-08T02:41:39;9.57;;;4.70;;
53263;SDS011;39153;52.680;6.172;2023-07-08T02:44:05;6.93;;;4.47;;
53263;SDS011;39153;52.680;6.172;2023-07-08T02:46:31;10.75;;;5.28;;
53263;SDS011;39153;52.680;6.172;2023-07-08T02:48:56;7.10;;;4.95;;
53263;SDS011;39153;52.680;6.172;2023-07-08T02:51:22;9.13;;;4.53;;
53263;SDS011;39153;52.680;6.172;2023-07-08T02:53:49;8.68;;;4.47;;
53263;SDS011;39153;52.680;6.172;2023-07-08T02:56:15;8.57;;;4.68;;
53263;SDS011;39153;52.680;6.172;2023-07-08T02:58:40;7.68;;;4.40;;
53263;SDS011;39153;52.680;6.172;2023-07-08T03:01:07;11.98;;;4.78;;
53263;SDS011;39153;52.680;6.172;2023-07-08T03:03:33;8.73;;;4.88;;
53263;SDS011;39153;52.680;6.172;2023-07-08T03:06:03;8.82;;;4.70;;
53263;SDS011;39153;52.680;6.172;2023-07-08T03:08:32;8.13;;;4.43;;
53263;SDS011;39153;52.680;6.172;2023-07-08T03:10:59;7.38;;;4.72;;
53263;SDS011;39153;52.680;6.172;2023-07-08T03:13:27;7.25;;;4.70;;
53263;SDS011;39153;52.680;6.172;2023-07-08T03:15:54;8.27;;;4.57;;
53263;SDS011;39153;52.680;6.172;2023-07-08T03:18:20;8.93;;;4.60;;
53263;SDS011;39153;52.680;6.172;2023-07-08T03:20:48;6.90;;;4.55;;
53263;SDS011;39153;52.680;6.172;2023-07-08T03:23:14;10.63;;;4.90;;
53263;SDS011;39153;52.680;6.172;2023-07-08T03:25:40;7.72;;;4.90;;
53263;SDS011;39153;52.680;6.172;2023-07-08T03:28:07;9.77;;;4.95;;
53263;SDS011;39153;52.680;6.172;2023-07-08T03:30:39;7.10;;;4.50;;
53263;SDS011;39153;52.680;6.172;2023-07-08T03:33:09;8.88;;;5.25;;
53263;SDS011;39153;52.680;6.172;2023-07-08T03:35:35;10.45;;;5.20;;
53263;SDS011;39153;52.680;6.172;2023-07-08T03:38:01;6.75;;;4.55;;
53263;SDS011;39153;52.680;6.172;2023-07-08T03:40:27;8.32;;;4.68;;
53263;SDS011;39153;52.680;6.172;2023-07-08T03:42:53;8.18;;;4.70;;
53263;SDS011;39153;52.680;6.172;2023-07-08T03:45:19;8.02;;;5.03;;
53263;SDS011;39153;52.680;6.172;2023-07-08T03:47:44;6.55;;;4.57;;
53263;SDS011;39153;52.680;6.172;2023-07-08T03:50:19;8.05;;;4.82;;
53263;SDS011;39153;52.680;6.172;2023-07-08T03:52:50;6.88;;;4.93;;
53263;SDS011;39153;52.680;6.172;2023-07-08T03:55:17;9.75;;;4.97;;
53263;SDS011;39153;52.680;6.172;2023-07-08T03:57:43;8.05;;;4.60;;
53263;SDS011;39153;52.680;6.172;2023-07-08T04:00:09;8.98;;;5.10;;
53263;SDS011;39153;52.680;6.172;2023-07-08T04:02:37;8.50;;;4.63;;
53263;SDS011;39153;52.680;6.172;2023-07-08T04:05:04;9.23;;;4.40;;
53263;SDS011;39153;52.680;6.172;2023-07-08T04:07:31;8.50;;;5.25;;
53263;SDS011;39153;52.680;6.172;2023-07-08T04:09:57;8.48;;;5.28;;
53263;SDS011;39153;52.680;6.172;2023-07-08T04:12:22;8.07;;;5.10;;
53263;SDS011;39153;52.680;6.172;2023-07-08T04:14:48;10.23;;;5.57;;
53263;SDS011;39153;52.680;6.172;2023-07-08T04:17:14;6.95;;;5.05;;
53263;SDS011;39153;52.680;6.172;2023-07-08T04:19:40;7.63;;;5.10;;
53263;SDS011;39153;52.680;6.172;2023-07-08T04:22:09;9.57;;;5.32;;
53263;SDS011;39153;52.680;6.172;2023-07-08T04:24:35;9.25;;;4.95;;
53263;SDS011;39153;52.680;6.172;2023-07-08T04:27:01;7.07;;;5.00;;
53263;SDS011;39153;52.680;6.172;2023-07-08T04:29:27;6.82;;;5.30;;
53263;SDS011;39153;52.680;6.172;2023-07-08T04:31:53;8.32;;;5.15;;
53263;SDS011;39153;52.680;6.172;2023-07-08T04:34:19;7.88;;;5.22;;
53263;SDS011;39153;52.680;6.172;2023-07-08T04:36:45;7.55;;;5.15;;
53263;SDS011;39153;52.680;6.172;2023-07-08T04:39:11;7.50;;;4.85;;
53263;SDS011;39153;52.680;6.172;2023-07-08T04:41:38;9.38;;;5.07;;
53263;SDS011;39153;52.680;6.172;2023-07-08T04:44:09;8.13;;;4.82;;
53263;SDS011;39153;52.680;6.172;2023-07-08T04:46:36;8.10;;;4.80;;
53263;SDS011;39153;52.680;6.172;2023-07-08T04:49:16;8.68;;;5.43;;
53263;SDS011;39153;52.680;6.172;2023-07-08T04:51:42;8.52;;;4.53;;
53263;SDS011;39153;52.680;6.172;2023-07-08T04:54:08;8.75;;;5.22;;
53263;SDS011;39153;52.680;6.172;2023-07-08T04:56:42;8.07;;;5.10;;
53263;SDS011;39153;52.680;6.172;2023-07-08T04:59:10;8.93;;;5.30;;
53263;SDS011;39153;52.680;6.172;2023-07-08T05:01:36;8.60;;;4.90;;
53263;SDS011;39153;52.680;6.172;2023-07-08T05:04:03;10.98;;;5.15;;
53263;SDS011;39153;52.680;6.172;2023-07-08T05:06:30;7.32;;;4.95;;
53263;SDS011;39153;52.680;6.172;2023-07-08T05:08:57;9.57;;;4.80;;
53263;SDS011;39153;52.680;6.172;2023-07-08T05:11:24;8.43;;;4.50;;
53263;SDS011;39153;52.680;6.172;2023-07-08T05:13:50;7.60;;;5.00;;
53263;SDS011;39153;52.680;6.172;2023-07-08T05:16:16;7.38;;;4.82;;
53263;SDS011;39153;52.680;6.172;2023-07-08T05:18:42;9.02;;;5.18;;
53263;SDS011;39153;52.680;6.172;2023-07-08T05:21:09;7.90;;;4.55;;
53263;SDS011;39153;52.680;6.172;2023-07-08T05:23:35;8.30;;;5.03;;
53263;SDS011;39153;52.680;6.172;2023-07-08T05:26:02;7.15;;;4.45;;
53263;SDS011;39153;52.680;6.172;2023-07-08T05:28:29;7.22;;;4.82;;
53263;SDS011;39153;52.680;6.172;2023-07-08T05:30:55;8.13;;;4.63;;
53263;SDS011;39153;52.680;6.172;2023-07-08T05:33:25;7.60;;;4.68;;
53263;SDS011;39153;52.680;6.172;2023-07-08T05:35:52;8.30;;;4.55;;
53263;SDS011;39153;52.680;6.172;2023-07-08T05:38:18;7.45;;;4.72;;
53263;SDS011;39153;52.680;6.172;2023-07-08T05:40:54;8.13;;;4.40;;
53263;SDS011;39153;52.680;6.172;2023-07-08T05:43:20;7.50;;;4.40;;
53263;SDS011;39153;52.680;6.172;2023-07-08T05:45:46;7.57;;;4.30;;
53263;SDS011;39153;52.680;6.172;2023-07-08T05:48:12;7.63;;;4.60;;
53263;SDS011;39153;52.680;6.172;2023-07-08T05:50:39;8.02;;;4.38;;
53263;SDS011;39153;52.680;6.172;2023-07-08T05:53:05;8.13;;;4.18;;
53263;SDS011;39153;52.680;6.172;2023-07-08T05:55:34;7.63;;;4.18;;
53263;SDS011;39153;52.680;6.172;2023-07-08T05:58:00;7.10;;;4.22;;
53263;SDS011;39153;52.680;6.172;2023-07-08T06:00:25;8.57;;;3.78;;
53263;SDS011;39153;52.680;6.172;2023-07-08T06:02:51;6.70;;;3.95;;
53263;SDS011;39153;52.680;6.172;2023-07-08T06:05:17;6.70;;;3.95;;
53263;SDS011;39153;52.680;6.172;2023-07-08T06:07:42;6.78;;;4.00;;
53263;SDS011;39153;52.680;6.172;2023-07-08T06:10:08;6.25;;;3.97;;
53263;SDS011;39153;52.680;6.172;2023-07-08T06:12:34;8.27;;;3.90;;
53263;SDS011;39153;52.680;6.172;2023-07-08T06:15:00;6.60;;;4.20;;
53263;SDS011;39153;52.680;6.172;2023-07-08T06:17:26;6.57;;;4.00;;
53263;SDS011;39153;52.680;6.172;2023-07-08T06:19:51;6.30;;;3.90;;
53263;SDS011;39153;52.680;6.172;2023-07-08T06:22:17;5.85;;;3.65;;
53263;SDS011;39153;52.680;6.172;2023-07-08T06:24:43;7.60;;;4.10;;
53263;SDS011;39153;52.680;6.172;2023-07-08T06:27:09;7.80;;;4.10;;
53263;SDS011;39153;52.680;6.172;2023-07-08T06:29:34;6.75;;;3.60;;
53263;SDS011;39153;52.680;6.172;2023-07-08T06:32:01;6.13;;;4.00;;
53263;SDS011;39153;52.680;6.172;2023-07-08T06:34:27;7.75;;;3.50;;
53263;SDS011;39153;52.680;6.172;2023-07-08T06:36:53;8.35;;;3.70;;
53263;SDS011;39153;52.680;6.172;2023-07-08T06:39:18;7.22;;;3.92;;
53263;SDS011;39153;52.680;6.172;2023-07-08T06:41:44;6.55;;;3.75;;
53263;SDS011;39153;52.680;6.172;2023-07-08T06:44:10;5.05;;;3.25;;
53263;SDS011;39153;52.680;6.172;2023-07-08T06:46:36;7.28;;;3.80;;
53263;SDS011;39153;52.680;6.172;2023-07-08T06:49:02;5.00;;;3.50;;
53263;SDS011;39153;52.680;6.172;2023-07-08T06:51:28;5.82;;;3.88;;
53263;SDS011;39153;52.680;6.172;2023-07-08T06:53:54;6.63;;;3.47;;
53263;SDS011;39153;52.680;6.172;2023-07-08T06:56:20;7.18;;;3.47;;
53263;SDS011;39153;52.680;6.172;2023-07-08T06:58:45;8.57;;;3.55;;
53263;SDS011;39153;52.680;6.172;2023-07-08T07:01:11;6.22;;;3.58;;
53263;SDS011;39153;52.680;6.172;2023-07-08T07:03:37;6.07;;;3.60;;
53263;SDS011;39153;52.680;6.172;2023-07-08T07:06:03;6.13;;;3.50;;
53263;SDS011;39153;52.680;6.172;2023-07-08T07:08:29;6.18;;;3.42;;
53263;SDS011;39153;52.680;6.172;2023-07-08T07:10:55;6.45;;;3.50;;
53263;SDS011;39153;52.680;6.172;2023-07-08T07:13:20;7.47;;;3.63;;
53263;SDS011;39153;52.680;6.172;2023-07-08T07:15:49;7.97;;;3.65;;
53263;SDS011;39153;52.680;6.172;2023-07-08T07:18:15;8.80;;;3.63;;
53263;SDS011;39153;52.680;6.172;2023-07-08T07:20:46;6.80;;;3.70;;
53263;SDS011;39153;52.680;6.172;2023-07-08T07:23:18;9.70;;;3.88;;
53263;SDS011;39153;52.680;6.172;2023-07-08T07:25:44;6.03;;;3.50;;
53263;SDS011;39153;52.680;6.172;2023-07-08T07:28:12;7.68;;;3.53;;
53263;SDS011;39153;52.680;6.172;2023-07-08T07:30:39;8.48;;;3.70;;
53263;SDS011;39153;52.680;6.172;2023-07-08T07:33:05;7.85;;;3.42;;
53263;SDS011;39153;52.680;6.172;2023-07-08T07:35:30;6.47;;;3.58;;
53263;SDS011;39153;52.680;6.172;2023-07-08T07:37:56;5.82;;;3.47;;
53263;SDS011;39153;52.680;6.172;2023-07-08T07:40:22;6.78;;;3.53;;
53263;SDS011;39153;52.680;6.172;2023-07-08T07:42:48;6.13;;;3.22;;
53263;SDS011;39153;52.680;6.172;2023-07-08T07:45:13;8.57;;;4.20;;
53263;SDS011;39153;52.680;6.172;2023-07-08T07:47:39;5.38;;;3.45;;
53263;SDS011;39153;52.680;6.172;2023-07-08T07:50:05;6.55;;;3.22;;
53263;SDS011;39153;52.680;6.172;2023-07-08T07:52:33;8.52;;;3.42;;
53263;SDS011;39153;52.680;6.172;2023-07-08T07:54:59;5.53;;;3.15;;
53263;SDS011;39153;52.680;6.172;2023-07-08T07:57:25;5.32;;;3.28;;
53263;SDS011;39153;52.680;6.172;2023-07-08T07:59:51;5.45;;;3.05;;
53263;SDS011;39153;52.680;6.172;2023-07-08T08:02:17;7.10;;;3.42;;
53263;SDS011;39153;52.680;6.172;2023-07-08T08:04:43;5.43;;;3.10;;
53263;SDS011;39153;52.680;6.172;2023-07-08T08:07:09;8.32;;;3.20;;
53263;SDS011;39153;52.680;6.172;2023-07-08T08:09:35;6.38;;;3.05;;
53263;SDS011;39153;52.680;6.172;2023-07-08T08:12:02;7.30;;;3.55;;
53263;SDS011;39153;52.680;6.172;2023-07-08T08:14:29;6.97;;;2.92;;
53263;SDS011;39153;52.680;6.172;2023-07-08T08:16:55;5.78;;;3.30;;
53263;SDS011;39153;52.680;6.172;2023-07-08T08:19:21;7.28;;;3.20;;
53263;SDS011;39153;52.680;6.172;2023-07-08T08:21:47;7.47;;;3.30;;
53263;SDS011;39153;52.680;6.172;2023-07-08T08:24:13;7.15;;;3.40;;
53263;SDS011;39153;52.680;6.172;2023-07-08T08:26:39;8.88;;;3.78;;
53263;SDS011;39153;52.680;6.172;2023-07-08T08:29:04;6.25;;;3.58;;
53263;SDS011;39153;52.680;6.172;2023-07-08T08:31:30;7.40;;;3.50;;
53263;SDS011;39153;52.680;6.172;2023-07-08T08:33:59;6.93;;;3.42;;
53263;SDS011;39153;52.680;6.172;2023-07-08T08:36:25;6.38;;;3.38;;
53263;SDS011;39153;52.680;6.172;2023-07-08T08:38:50;6.32;;;3.42;;
53263;SDS011;39153;52.680;6.172;2023-07-08T08:41:17;8.52;;;3.60;;
53263;SDS011;39153;52.680;6.172;2023-07-08T08:43:46;6.88;;;3.42;;
53263;SDS011;39153;52.680;6.172;2023-07-08T08:49:21;7.63;;;3.95;;
53263;SDS011;39153;52.680;6.172;2023-07-08T08:51:52;7.38;;;3.80;;
53263;SDS011;39153;52.680;6.172;2023-07-08T08:54:19;7.55;;;3.50;;
53263;SDS011;39153;52.680;6.172;2023-07-08T09:02:25;9.00;;;3.50;;
53263;SDS011;39153;52.680;6.172;2023-07-08T09:05:03;6.97;;;3.15;;
53263;SDS011;39153;52.680;6.172;2023-07-08T09:07:58;8.57;;;3.35;;
53263;SDS011;39153;52.680;6.172;2023-07-08T09:10:47;6.60;;;3.30;;
53263;SDS011;39153;52.680;6.172;2023-07-08T09:13:33;6.40;;;3.22;;
53263;SDS011;39153;52.680;6.172;2023-07-08T09:16:16;6.68;;;3.00;;
53263;SDS011;39153;52.680;6.172;2023-07-08T09:21:24;8.80;;;3.97;;
53263;SDS011;39153;52.680;6.172;2023-07-08T09:24:02;5.88;;;3.40;;
53263;SDS011;39153;52.680;6.172;2023-07-08T09:26:33;7.03;;;3.40;;
53263;SDS011;39153;52.680;6.172;2023-07-08T09:28:59;6.55;;;3.45;;
53263;SDS011;39153;52.680;6.172;2023-07-08T09:31:28;5.53;;;3.08;;
53263;SDS011;39153;52.680;6.172;2023-07-08T09:34:13;7.70;;;3.00;;
53263;SDS011;39153;52.680;6.172;2023-07-08T09:36:44;7.90;;;3.53;;
53263;SDS011;39153;52.680;6.172;2023-07-08T09:39:12;6.15;;;3.30;;
53263;SDS011;39153;52.680;6.172;2023-07-08T09:41:39;5.03;;;2.75;;
53263;SDS011;39153;52.680;6.172;2023-07-08T09:46:48;6.32;;;3.45;;
53263;SDS011;39153;52.680;6.172;2023-07-08T09:49:18;5.93;;;3.35;;
53263;SDS011;39153;52.680;6.172;2023-07-08T09:51:47;6.40;;;3.70;;
53263;SDS011;39153;52.680;6.172;2023-07-08T09:54:15;6.63;;;3.10;;
53263;SDS011;39153;52.680;6.172;2023-07-08T09:56:43;5.72;;;3.40;;
53263;SDS011;39153;52.680;6.172;2023-07-08T09:59:14;7.70;;;3.38;;
53263;SDS011;39153;52.680;6.172;2023-07-08T10:01:41;6.88;;;3.33;;
53263;SDS011;39153;52.680;6.172;2023-07-08T10:04:07;8.30;;;3.40;;
53263;SDS011;39153;52.680;6.172;2023-07-08T10:06:33;7.68;;;3.47;;
53263;SDS011;39153;52.680;6.172;2023-07-08T10:09:11;5.78;;;3.00;;
53263;SDS011;39153;52.680;6.172;2023-07-08T10:11:48;5.47;;;3.23;;
53263;SDS011;39153;52.680;6.172;2023-07-08T10:14:39;6.85;;;3.13;;
53263;SDS011;39153;52.680;6.172;2023-07-08T10:17:15;6.43;;;3.35;;
53263;SDS011;39153;52.680;6.172;2023-07-08T10:19:42;7.13;;;3.13;;
53263;SDS011;39153;52.680;6.172;2023-07-08T10:24:47;5.05;;;3.47;;
53263;SDS011;39153;52.680;6.172;2023-07-08T10:30:24;5.95;;;3.42;;
53263;SDS011;39153;52.680;6.172;2023-07-08T10:42:07;8.40;;;3.55;;
53263;SDS011;39153;52.680;6.172;2023-07-08T10:44:48;9.00;;;3.20;;
53263;SDS011;39153;52.680;6.172;2023-07-08T10:47:29;5.93;;;3.38;;
53263;SDS011;39153;52.680;6.172;2023-07-08T10:50:14;7.50;;;3.20;;
53263;SDS011;39153;52.680;6.172;2023-07-08T10:53:21;8.77;;;3.13;;
53263;SDS011;39153;52.680;6.172;2023-07-08T11:04:23;6.80;;;3.63;;
53263;SDS011;39153;52.680;6.172;2023-07-08T11:07:12;5.88;;;3.20;;
53263;SDS011;39153;52.680;6.172;2023-07-08T11:09:56;6.38;;;3.30;;
53263;SDS011;39153;52.680;6.172;2023-07-08T11:15:20;6.60;;;3.28;;
53263;SDS011;39153;52.680;6.172;2023-07-08T11:20:37;5.70;;;3.67;;
53263;SDS011;39153;52.680;6.172;2023-07-08T11:25:54;6.68;;;3.58;;
53263;SDS011;39153;52.680;6.172;2023-07-08T11:28:40;8.23;;;3.72;;
53263;SDS011;39153;52.680;6.172;2023-07-08T11:31:06;6.35;;;3.47;;
53263;SDS011;39153;52.680;6.172;2023-07-08T11:33:32;5.75;;;3.60;;
53263;SDS011;39153;52.680;6.172;2023-07-08T11:35:59;9.02;;;3.65;;
53263;SDS011;39153;52.680;6.172;2023-07-08T11:38:28;5.88;;;3.20;;
53263;SDS011;39153;52.680;6.172;2023-07-08T11:40:55;6.90;;;3.60;;
53263;SDS011;39153;52.680;6.172;2023-07-08T11:43:21;9.43;;;3.85;;
53263;SDS011;39153;52.680;6.172;2023-07-08T11:45:50;5.82;;;4.00;;
53263;SDS011;39153;52.680;6.172;2023-07-08T11:48:21;9.45;;;3.70;;
53263;SDS011;39153;52.680;6.172;2023-07-08T11:50:50;5.57;;;3.67;;
53263;SDS011;39153;52.680;6.172;2023-07-08T11:53:47;8.10;;;3.90;;
53263;SDS011;39153;52.680;6.172;2023-07-08T11:58:59;9.02;;;4.43;;
53263;SDS011;39153;52.680;6.172;2023-07-08T12:01:46;7.40;;;4.45;;
53263;SDS011;39153;52.680;6.172;2023-07-08T12:07:09;8.38;;;4.05;;
53263;SDS011;39153;52.680;6.172;2023-07-08T12:09:45;6.95;;;3.97;;
53263;SDS011;39153;52.680;6.172;2023-07-08T12:12:41;8.20;;;3.97;;
53263;SDS011;39153;52.680;6.172;2023-07-08T12:17:35;6.18;;;3.67;;
53263;SDS011;39153;52.680;6.172;2023-07-08T12:20:02;6.82;;;3.85;;
53263;SDS011;39153;52.680;6.172;2023-07-08T12:22:38;8.38;;;3.95;;
53263;SDS011;39153;52.680;6.172;2023-07-08T12:25:07;7.75;;;4.25;;
53263;SDS011;39153;52.680;6.172;2023-07-08T12:27:45;7.88;;;4.13;;
53263;SDS011;39153;52.680;6.172;2023-07-08T12:30:11;8.57;;;4.20;;
53263;SDS011;39153;52.680;6.172;2023-07-08T12:32:42;8.20;;;4.20;;
53263;SDS011;39153;52.680;6.172;2023-07-08T12:37:58;8.63;;;4.10;;
53263;SDS011;39153;52.680;6.172;2023-07-08T12:40:26;6.88;;;3.72;;
53263;SDS011;39153;52.680;6.172;2023-07-08T12:42:54;7.72;;;4.35;;
53263;SDS011;39153;52.680;6.172;2023-07-08T12:45:21;8.48;;;3.92;;
53263;SDS011;39153;52.680;6.172;2023-07-08T12:47:48;6.45;;;4.25;;
53263;SDS011;39153;52.680;6.172;2023-07-08T12:50:14;6.38;;;4.00;;
53263;SDS011;39153;52.680;6.172;2023-07-08T12:52:42;7.50;;;4.32;;
53263;SDS011;39153;52.680;6.172;2023-07-08T12:55:10;8.88;;;4.05;;
53263;SDS011;39153;52.680;6.172;2023-07-08T12:57:37;7.03;;;4.05;;
53263;SDS011;39153;52.680;6.172;2023-07-08T13:00:06;7.78;;;3.83;;
53263;SDS011;39153;52.680;6.172;2023-07-08T13:02:43;9.90;;;4.35;;
53263;SDS011;39153;52.680;6.172;2023-07-08T13:05:11;7.75;;;4.13;;
53263;SDS011;39153;52.680;6.172;2023-07-08T13:07:41;6.15;;;4.13;;
53263;SDS011;39153;52.680;6.172;2023-07-08T13:10:16;9.00;;;4.25;;
53263;SDS011;39153;52.680;6.172;2023-07-08T13:12:45;7.38;;;4.40;;
53263;SDS011;39153;52.680;6.172;2023-07-08T13:15:20;12.80;;;4.75;;
53263;SDS011;39153;52.680;6.172;2023-07-08T13:17:48;8.77;;;4.60;;
53263;SDS011;39153;52.680;6.172;2023-07-08T13:20:15;7.00;;;4.60;;
53263;SDS011;39153;52.680;6.172;2023-07-08T13:22:42;6.07;;;3.95;;
53263;SDS011;39153;52.680;6.172;2023-07-08T13:25:13;12.57;;;4.50;;
53263;SDS011;39153;52.680;6.172;2023-07-08T13:27:41;8.68;;;4.55;;
53263;SDS011;39153;52.680;6.172;2023-07-08T13:30:20;7.82;;;4.15;;
53263;SDS011;39153;52.680;6.172;2023-07-08T13:32:58;6.22;;;4.45;;
53263;SDS011;39153;52.680;6.172;2023-07-08T13:37:50;9.88;;;4.72;;
53263;SDS011;39153;52.680;6.172;2023-07-08T13:40:16;7.40;;;4.70;;
53263;SDS011;39153;52.680;6.172;2023-07-08T13:42:49;11.13;;;4.95;;
53263;SDS011;39153;52.680;6.172;2023-07-08T13:45:37;7.28;;;4.38;;
53263;SDS011;39153;52.680;6.172;2023-07-08T13:48:10;7.90;;;4.53;;
53263;SDS011;39153;52.680;6.172;2023-07-08T13:51:01;8.40;;;4.68;;
53263;SDS011;39153;52.680;6.172;2023-07-08T13:59:05;7.68;;;4.65;;
53263;SDS011;39153;52.680;6.172;2023-07-08T14:01:33;7.93;;;4.97;;
53263;SDS011;39153;52.680;6.172;2023-07-08T14:04:00;9.93;;;4.88;;
53263;SDS011;39153;52.680;6.172;2023-07-08T14:06:32;7.90;;;4.85;;
53263;SDS011;39153;52.680;6.172;2023-07-08T14:09:01;7.07;;;4.53;;
53263;SDS011;39153;52.680;6.172;2023-07-08T14:11:36;8.48;;;5.18;;
53263;SDS011;39153;52.680;6.172;2023-07-08T14:14:02;8.93;;;5.40;;
53263;SDS011;39153;52.680;6.172;2023-07-08T14:16:28;9.40;;;4.95;;
53263;SDS011;39153;52.680;6.172;2023-07-08T14:18:59;6.88;;;4.05;;
53263;SDS011;39153;52.680;6.172;2023-07-08T14:21:32;8.80;;;4.40;;
53263;SDS011;39153;52.680;6.172;2023-07-08T14:23:59;7.20;;;4.30;;
53263;SDS011;39153;52.680;6.172;2023-07-08T14:26:25;6.85;;;4.40;;
53263;SDS011;39153;52.680;6.172;2023-07-08T14:28:53;7.38;;;4.40;;
53263;SDS011;39153;52.680;6.172;2023-07-08T14:31:20;10.57;;;4.45;;
53263;SDS011;39153;52.680;6.172;2023-07-08T14:33:59;7.82;;;4.45;;
53263;SDS011;39153;52.680;6.172;2023-07-08T14:36:28;7.43;;;4.15;;
53263;SDS011;39153;52.680;6.172;2023-07-08T14:38:54;7.30;;;4.47;;
53263;SDS011;39153;52.680;6.172;2023-07-08T14:41:19;8.60;;;4.25;;
53263;SDS011;39153;52.680;6.172;2023-07-08T14:43:45;7.35;;;4.40;;
53263;SDS011;39153;52.680;6.172;2023-07-08T14:46:11;7.78;;;4.45;;
53263;SDS011;39153;52.680;6.172;2023-07-08T14:48:36;7.65;;;4.82;;
53263;SDS011;39153;52.680;6.172;2023-07-08T14:51:02;9.57;;;4.38;;
53263;SDS011;39153;52.680;6.172;2023-07-08T14:53:28;6.85;;;4.50;;
53263;SDS011;39153;52.680;6.172;2023-07-08T14:55:54;7.28;;;3.92;;
53263;SDS011;39153;52.680;6.172;2023-07-08T14:58:25;6.03;;;4.13;;
53263;SDS011;39153;52.680;6.172;2023-07-08T15:00:57;6.55;;;4.43;;
53263;SDS011;39153;52.680;6.172;2023-07-08T15:03:25;8.52;;;4.57;;
53263;SDS011;39153;52.680;6.172;2023-07-08T15:05:51;8.13;;;5.13;;
53263;SDS011;39153;52.680;6.172;2023-07-08T15:08:18;9.02;;;6.35;;
53263;SDS011;39153;52.680;6.172;2023-07-08T15:10:48;9.73;;;4.70;;
53263;SDS011;39153;52.680;6.172;2023-07-08T15:13:16;9.52;;;5.05;;
53263;SDS011;39153;52.680;6.172;2023-07-08T15:15:44;7.20;;;4.40;;
53263;SDS011;39153;52.680;6.172;2023-07-08T15:18:14;8.63;;;4.35;;
53263;SDS011;39153;52.680;6.172;2023-07-08T15:20:41;7.43;;;4.40;;
53263;SDS011;39153;52.680;6.172;2023-07-08T15:23:09;8.90;;;4.45;;
53263;SDS011;39153;52.680;6.172;2023-07-08T15:25:35;10.95;;;4.85;;
53263;SDS011;39153;52.680;6.172;2023-07-08T15:28:02;7.80;;;4.50;;
53263;SDS011;39153;52.680;6.172;2023-07-08T15:30:29;6.88;;;4.47;;
53263;SDS011;39153;52.680;6.172;2023-07-08T15:32:55;7.28;;;4.78;;
53263;SDS011;39153;52.680;6.172;2023-07-08T15:35:25;7.65;;;4.53;;
53263;SDS011;39153;52.680;6.172;2023-07-08T15:37:55;9.00;;;5.00;;
53263;SDS011;39153;52.680;6.172;2023-07-08T15:40:22;9.80;;;4.70;;
53263;SDS011;39153;52.680;6.172;2023-07-08T15:42:53;8.52;;;4.22;;
53263;SDS011;39153;52.680;6.172;2023-07-08T15:47:50;9.27;;;5.63;;
53263;SDS011;39153;52.680;6.172;2023-07-08T15:50:17;7.03;;;4.60;;
53263;SDS011;39153;52.680;6.172;2023-07-08T15:52:45;7.72;;;4.60;;
53263;SDS011;39153;52.680;6.172;2023-07-08T15:55:11;6.60;;;5.18;;
53263;SDS011;39153;52.680;6.172;2023-07-08T15:57:46;8.57;;;4.70;;
53263;SDS011;39153;52.680;6.172;2023-07-08T16:00:19;9.38;;;5.32;;
53263;SDS011;39153;52.680;6.172;2023-07-08T16:02:56;8.60;;;4.40;;
53263;SDS011;39153;52.680;6.172;2023-07-08T16:05:24;7.07;;;4.88;;
53263;SDS011;39153;52.680;6.172;2023-07-08T16:07:51;7.55;;;4.30;;
53263;SDS011;39153;52.680;6.172;2023-07-08T16:10:18;10.57;;;5.00;;